QTR64P EIDW-OTHH
Flight info
| Callsign | QTR64P |
|---|---|
| Flight time | N/A |
| Altitude | 37000 |
| Route | ENDEQ3J ENDEQ Q36 ALAVA Z195 MALUD UL975 WAL M16 DOLAS DCT NAVPI DCT GISEB DCT TIVUN DCT ESAMA DCT OSBIT DCT BARSU DCT DEXIT DCT STEIN DCT BABIT DCT NISVA/N0481F390 DCT RODIP DCT BELGI UT38 VESAR DCT NIKAS R785 RASLI P559 TRF R23 NEVOL N318 TAMRO T503 KSA M321 RESAL T533 RAPMA/N0524F290 Y214 ASPUS Y432 LADBO T142 LAEEB |
| Aircraft | B789/H-SDE1E2E3FGHIJ2J3J4J5M1RWXY/LB1D1 |
Departure
| Time | N/A |
|---|---|
| Airport | Dublin Airport (EIDW) |
Arrival
| Time | 2026-05-07 17:05 |
|---|---|
| Airport | Hamad International Airport (OTHH) |
| Time | Latitude | Longitude | Altitude | Speed | Heading |
|---|---|---|---|---|---|
| 2026-05-07 11:31 | 50.33656 | 8.88044 | 37032 ft | 491 kts | 121° |
| 2026-05-07 11:31 | 50.30692 | 8.97741 | 37007 ft | 495 kts | 116° |
| 2026-05-07 11:32 | 50.26438 | 9.12472 | 37021 ft | 495 kts | 117° |
| 2026-05-07 11:33 | 50.23575 | 9.22271 | 37031 ft | 496 kts | 116° |
| 2026-05-07 11:33 | 50.20711 | 9.32061 | 37004 ft | 495 kts | 116° |
| 2026-05-07 11:34 | 50.17838 | 9.41815 | 37003 ft | 495 kts | 116° |
| 2026-05-07 11:34 | 50.14973 | 9.51520 | 37003 ft | 496 kts | 116° |
| 2026-05-07 11:35 | 50.12081 | 9.61268 | 36999 ft | 495 kts | 116° |
| 2026-05-07 11:35 | 50.09184 | 9.70999 | 36997 ft | 495 kts | 116° |
| 2026-05-07 11:36 | 50.06390 | 9.80810 | 37029 ft | 496 kts | 111° |
| 2026-05-07 11:36 | 50.03959 | 9.90888 | 37007 ft | 497 kts | 112° |
| 2026-05-07 11:37 | 50.01508 | 10.00944 | 37006 ft | 497 kts | 112° |
| 2026-05-07 11:37 | 49.99056 | 10.10997 | 37014 ft | 497 kts | 112° |
| 2026-05-07 11:38 | 49.96590 | 10.21034 | 37007 ft | 497 kts | 112° |
| 2026-05-07 11:38 | 49.94138 | 10.30985 | 36996 ft | 497 kts | 112° |
| 2026-05-07 11:39 | 49.91536 | 10.40921 | 37022 ft | 495 kts | 119° |
| 2026-05-07 11:39 | 49.88393 | 10.50447 | 37004 ft | 496 kts | 118° |
| 2026-05-07 11:40 | 49.85265 | 10.59979 | 36999 ft | 495 kts | 118° |
| 2026-05-07 11:40 | 49.82126 | 10.69474 | 37000 ft | 496 kts | 119° |
| 2026-05-07 11:41 | 49.78976 | 10.78980 | 37000 ft | 496 kts | 119° |
| 2026-05-07 11:41 | 49.75818 | 10.88472 | 37001 ft | 496 kts | 119° |
| 2026-05-07 11:42 | 49.72654 | 10.97943 | 36998 ft | 496 kts | 119° |
| 2026-05-07 11:42 | 49.69483 | 11.07406 | 37003 ft | 496 kts | 119° |
| 2026-05-07 11:43 | 49.66327 | 11.16783 | 37007 ft | 495 kts | 119° |
| 2026-05-07 11:43 | 49.63143 | 11.26213 | 37001 ft | 496 kts | 120° |
| 2026-05-07 11:44 | 49.59948 | 11.35636 | 36999 ft | 496 kts | 120° |
| 2026-05-07 11:44 | 49.56746 | 11.45050 | 36995 ft | 495 kts | 120° |
| 2026-05-07 11:45 | 49.53541 | 11.54433 | 36989 ft | 496 kts | 120° |
| 2026-05-07 11:45 | 49.50320 | 11.63832 | 36971 ft | 496 kts | 120° |
| 2026-05-07 11:46 | 49.47095 | 11.73205 | 36979 ft | 496 kts | 120° |
| 2026-05-07 11:46 | 49.43858 | 11.82580 | 36991 ft | 497 kts | 120° |
| 2026-05-07 11:47 | 49.40615 | 11.91940 | 36996 ft | 497 kts | 120° |
| 2026-05-07 11:47 | 49.37356 | 12.01309 | 36993 ft | 496 kts | 120° |
| 2026-05-07 11:48 | 49.34102 | 12.10631 | 36989 ft | 496 kts | 121° |
| 2026-05-07 11:48 | 49.30834 | 12.19959 | 36986 ft | 496 kts | 121° |
| 2026-05-07 11:49 | 49.27562 | 12.29265 | 36986 ft | 496 kts | 121° |
| 2026-05-07 11:49 | 49.24279 | 12.38567 | 36979 ft | 497 kts | 121° |
| 2026-05-07 11:50 | 49.21012 | 12.47794 | 36980 ft | 496 kts | 121° |
| 2026-05-07 11:50 | 49.17711 | 12.57081 | 36978 ft | 496 kts | 121° |
| 2026-05-07 11:51 | 49.14408 | 12.66339 | 36986 ft | 497 kts | 121° |
| 2026-05-07 11:51 | 49.11093 | 12.75601 | 36984 ft | 497 kts | 122° |
| 2026-05-07 11:52 | 49.07771 | 12.84847 | 37001 ft | 497 kts | 122° |
| 2026-05-07 11:52 | 49.04440 | 12.94085 | 36998 ft | 497 kts | 122° |
| 2026-05-07 11:53 | 49.01102 | 13.03312 | 36993 ft | 497 kts | 122° |
| 2026-05-07 11:53 | 48.97751 | 13.12541 | 36991 ft | 498 kts | 122° |
| 2026-05-07 11:54 | 48.94393 | 13.21756 | 36991 ft | 497 kts | 122° |
| 2026-05-07 11:54 | 48.91053 | 13.30891 | 36985 ft | 498 kts | 122° |
| 2026-05-07 11:55 | 48.87678 | 13.40087 | 36982 ft | 498 kts | 123° |
| 2026-05-07 11:55 | 48.84297 | 13.49269 | 36973 ft | 498 kts | 123° |
| 2026-05-07 11:56 | 48.80906 | 13.58445 | 36971 ft | 498 kts | 123° |
| 2026-05-07 11:56 | 48.77514 | 13.67593 | 36971 ft | 498 kts | 123° |
| 2026-05-07 11:57 | 48.73854 | 13.76435 | 36974 ft | 494 kts | 128° |
| 2026-05-07 11:57 | 48.70051 | 13.85114 | 36970 ft | 494 kts | 128° |
| 2026-05-07 11:58 | 48.66231 | 13.93771 | 36973 ft | 494 kts | 128° |
| 2026-05-07 11:58 | 48.62417 | 14.02400 | 36966 ft | 493 kts | 128° |
| 2026-05-07 11:59 | 48.58631 | 14.10935 | 36970 ft | 491 kts | 128° |
| 2026-05-07 11:59 | 48.54817 | 14.19504 | 36972 ft | 491 kts | 128° |
| 2026-05-07 12:00 | 48.51005 | 14.28048 | 36977 ft | 490 kts | 128° |
| 2026-05-07 12:00 | 48.47188 | 14.36568 | 36973 ft | 490 kts | 128° |
| 2026-05-07 12:01 | 48.43363 | 14.45085 | 36971 ft | 490 kts | 129° |
| 2026-05-07 12:01 | 48.39539 | 14.53571 | 36978 ft | 489 kts | 129° |
| 2026-05-07 12:02 | 48.35712 | 14.62037 | 36977 ft | 489 kts | 129° |
| 2026-05-07 12:02 | 48.31883 | 14.70480 | 36974 ft | 489 kts | 129° |
| 2026-05-07 12:03 | 48.28064 | 14.78875 | 36970 ft | 489 kts | 129° |
| 2026-05-07 12:03 | 48.24218 | 14.87306 | 36970 ft | 489 kts | 129° |
| 2026-05-07 12:04 | 48.20365 | 14.95723 | 36967 ft | 489 kts | 129° |
| 2026-05-07 12:04 | 48.16510 | 15.04121 | 36985 ft | 489 kts | 129° |
| 2026-05-07 12:05 | 48.12645 | 15.12513 | 36979 ft | 489 kts | 129° |
| 2026-05-07 12:05 | 48.08778 | 15.20885 | 36972 ft | 489 kts | 129° |
| 2026-05-07 12:06 | 48.04900 | 15.29254 | 36981 ft | 488 kts | 130° |
| 2026-05-07 12:06 | 48.01683 | 15.36178 | 36984 ft | 488 kts | 130° |
| 2026-05-07 12:07 | 47.97808 | 15.44493 | 36979 ft | 488 kts | 130° |
| 2026-05-07 12:07 | 47.93304 | 15.54128 | 36988 ft | 486 kts | 130° |
| 2026-05-07 12:08 | 47.89435 | 15.62375 | 36979 ft | 486 kts | 130° |
| 2026-05-07 12:08 | 47.86182 | 15.69291 | 36982 ft | 486 kts | 130° |
| 2026-05-07 12:09 | 47.82292 | 15.77539 | 36988 ft | 487 kts | 130° |
| 2026-05-07 12:09 | 47.78394 | 15.85777 | 36980 ft | 487 kts | 130° |
| 2026-05-07 12:10 | 47.74500 | 15.93985 | 36981 ft | 486 kts | 130° |
| 2026-05-07 12:10 | 47.70626 | 16.02123 | 36986 ft | 486 kts | 131° |
| 2026-05-07 12:11 | 47.66715 | 16.10317 | 36979 ft | 487 kts | 131° |
| 2026-05-07 12:11 | 47.62791 | 16.18513 | 36984 ft | 488 kts | 131° |
| 2026-05-07 12:12 | 47.58855 | 16.26710 | 36981 ft | 488 kts | 131° |
| 2026-05-07 12:12 | 47.54916 | 16.34889 | 36976 ft | 488 kts | 131° |
| 2026-05-07 12:13 | 47.50966 | 16.43065 | 36987 ft | 487 kts | 131° |
| 2026-05-07 12:13 | 47.47014 | 16.51220 | 36982 ft | 488 kts | 131° |
| 2026-05-07 12:14 | 47.43048 | 16.59362 | 36971 ft | 486 kts | 134° |
| 2026-05-07 12:14 | 47.38576 | 16.66746 | 36988 ft | 483 kts | 137° |
| 2026-05-07 12:15 | 47.34062 | 16.74101 | 36985 ft | 483 kts | 138° |
| 2026-05-07 12:15 | 47.29522 | 16.81413 | 36984 ft | 483 kts | 138° |
| 2026-05-07 12:16 | 47.24996 | 16.88722 | 36987 ft | 483 kts | 138° |
| 2026-05-07 12:16 | 47.20489 | 16.95958 | 36986 ft | 483 kts | 138° |
| 2026-05-07 12:17 | 47.15955 | 17.03229 | 36993 ft | 482 kts | 138° |
| 2026-05-07 12:17 | 47.11420 | 17.10475 | 36991 ft | 482 kts | 138° |
| 2026-05-07 12:18 | 47.06879 | 17.17716 | 36998 ft | 482 kts | 138° |
| 2026-05-07 12:18 | 47.02337 | 17.24937 | 36996 ft | 481 kts | 138° |
| 2026-05-07 12:19 | 46.97791 | 17.32144 | 36998 ft | 482 kts | 138° |
| 2026-05-07 12:19 | 46.93235 | 17.39349 | 37000 ft | 482 kts | 139° |
| 2026-05-07 12:20 | 46.88678 | 17.46536 | 36995 ft | 481 kts | 139° |
| 2026-05-07 12:20 | 46.84161 | 17.53640 | 36997 ft | 480 kts | 139° |
| 2026-05-07 12:21 | 46.79610 | 17.60780 | 37001 ft | 480 kts | 139° |
| 2026-05-07 12:21 | 46.75049 | 17.67914 | 37006 ft | 480 kts | 139° |
| 2026-05-07 12:22 | 46.70495 | 17.75020 | 37006 ft | 479 kts | 139° |
| 2026-05-07 12:22 | 46.65938 | 17.82111 | 37011 ft | 480 kts | 139° |
| 2026-05-07 12:23 | 46.61369 | 17.89203 | 37007 ft | 480 kts | 139° |
| 2026-05-07 12:23 | 46.56833 | 17.96225 | 37019 ft | 479 kts | 139° |
| 2026-05-07 12:24 | 46.52262 | 18.03281 | 37015 ft | 479 kts | 139° |
| 2026-05-07 12:24 | 46.47700 | 18.10308 | 37012 ft | 479 kts | 139° |
| 2026-05-07 12:25 | 46.43120 | 18.17340 | 37018 ft | 479 kts | 139° |
| 2026-05-07 12:25 | 46.38525 | 18.24379 | 37009 ft | 480 kts | 139° |
| 2026-05-07 12:26 | 46.33938 | 18.31389 | 37013 ft | 480 kts | 139° |
| 2026-05-07 12:26 | 46.29346 | 18.38386 | 37015 ft | 479 kts | 139° |
| 2026-05-07 12:27 | 46.24750 | 18.45371 | 37018 ft | 479 kts | 139° |
| 2026-05-07 12:27 | 46.20159 | 18.52331 | 37018 ft | 478 kts | 139° |
| 2026-05-07 12:28 | 46.15589 | 18.59239 | 37015 ft | 479 kts | 139° |
| 2026-05-07 12:28 | 46.10989 | 18.66178 | 37010 ft | 478 kts | 139° |
| 2026-05-07 12:29 | 46.06386 | 18.73101 | 37010 ft | 478 kts | 139° |
| 2026-05-07 12:29 | 46.01781 | 18.80010 | 37000 ft | 478 kts | 139° |
| 2026-05-07 12:30 | 45.97173 | 18.86907 | 37003 ft | 478 kts | 139° |
| 2026-05-07 12:30 | 45.92547 | 18.93762 | 37000 ft | 475 kts | 142° |
| 2026-05-07 12:31 | 45.87812 | 19.00409 | 37002 ft | 477 kts | 140° |
| 2026-05-07 12:31 | 45.83062 | 19.07081 | 36995 ft | 477 kts | 141° |
| 2026-05-07 12:32 | 45.78307 | 19.13717 | 36995 ft | 478 kts | 140° |
| 2026-05-07 12:32 | 45.73582 | 19.20320 | 36997 ft | 477 kts | 141° |
| 2026-05-07 12:33 | 45.66442 | 19.30244 | 37008 ft | 477 kts | 140° |
| 2026-05-07 12:33 | 45.61686 | 19.36836 | 36993 ft | 476 kts | 141° |
| 2026-05-07 12:34 | 45.56927 | 19.43415 | 37000 ft | 476 kts | 141° |
| 2026-05-07 12:34 | 45.52164 | 19.49985 | 37000 ft | 477 kts | 140° |
| 2026-05-07 12:35 | 45.47380 | 19.56567 | 37003 ft | 477 kts | 140° |
| 2026-05-07 12:35 | 45.42634 | 19.63082 | 37005 ft | 476 kts | 141° |
| 2026-05-07 12:36 | 45.37857 | 19.69620 | 37002 ft | 476 kts | 141° |
| 2026-05-07 12:36 | 45.33076 | 19.76149 | 37005 ft | 477 kts | 141° |
| 2026-05-07 12:37 | 45.28290 | 19.82670 | 37012 ft | 478 kts | 141° |
| 2026-05-07 12:37 | 45.23492 | 19.89191 | 37011 ft | 477 kts | 141° |
| 2026-05-07 12:38 | 45.18696 | 19.95691 | 37019 ft | 477 kts | 141° |
| 2026-05-07 12:38 | 45.13896 | 20.02183 | 37013 ft | 478 kts | 141° |
| 2026-05-07 12:39 | 45.09079 | 20.08681 | 37013 ft | 478 kts | 141° |
| 2026-05-07 12:39 | 45.04291 | 20.15125 | 37013 ft | 478 kts | 141° |
| 2026-05-07 12:40 | 44.99465 | 20.21603 | 37013 ft | 478 kts | 141° |
| 2026-05-07 12:40 | 44.94640 | 20.28064 | 37013 ft | 478 kts | 141° |
| 2026-05-07 12:41 | 44.89798 | 20.34531 | 37020 ft | 481 kts | 141° |
| 2026-05-07 12:41 | 44.84893 | 20.41067 | 37030 ft | 488 kts | 141° |
| 2026-05-07 12:42 | 44.79925 | 20.47673 | 37035 ft | 494 kts | 141° |
| 2026-05-07 12:42 | 44.74920 | 20.54309 | 37039 ft | 500 kts | 141° |
| 2026-05-07 12:43 | 44.69823 | 20.61050 | 37038 ft | 505 kts | 141° |
| 2026-05-07 12:43 | 44.64706 | 20.67804 | 37040 ft | 503 kts | 141° |
| 2026-05-07 12:44 | 44.59598 | 20.74525 | 37041 ft | 503 kts | 141° |
| 2026-05-07 12:44 | 44.54488 | 20.81233 | 37033 ft | 502 kts | 141° |
| 2026-05-07 12:45 | 44.49381 | 20.87919 | 37035 ft | 502 kts | 141° |
| 2026-05-07 12:45 | 44.44263 | 20.94604 | 37031 ft | 502 kts | 141° |
| 2026-05-07 12:46 | 44.39149 | 21.01267 | 37033 ft | 502 kts | 141° |
| 2026-05-07 12:46 | 44.34031 | 21.07917 | 37030 ft | 502 kts | 141° |
| 2026-05-07 12:47 | 44.28949 | 21.14504 | 37034 ft | 501 kts | 141° |
| 2026-05-07 12:47 | 44.23839 | 21.21113 | 37042 ft | 501 kts | 141° |
| 2026-05-07 12:48 | 44.18725 | 21.27708 | 37040 ft | 501 kts | 141° |
| 2026-05-07 12:48 | 44.13597 | 21.34307 | 37043 ft | 501 kts | 141° |
| 2026-05-07 12:49 | 44.08467 | 21.40891 | 37069 ft | 501 kts | 141° |
| 2026-05-07 12:49 | 44.03353 | 21.47440 | 37069 ft | 499 kts | 141° |
| 2026-05-07 12:50 | 43.98233 | 21.53977 | 37064 ft | 500 kts | 141° |
| 2026-05-07 12:50 | 43.93104 | 21.60513 | 37060 ft | 501 kts | 141° |
| 2026-05-07 12:51 | 43.87969 | 21.67039 | 37069 ft | 501 kts | 141° |
| 2026-05-07 12:51 | 43.82825 | 21.73561 | 37070 ft | 501 kts | 141° |
| 2026-05-07 12:52 | 43.77712 | 21.80027 | 37071 ft | 501 kts | 141° |
| 2026-05-07 12:52 | 43.72550 | 21.86540 | 37072 ft | 502 kts | 141° |
| 2026-05-07 12:53 | 43.67388 | 21.93037 | 37071 ft | 502 kts | 141° |
| 2026-05-07 12:53 | 43.62220 | 21.99526 | 37079 ft | 502 kts | 141° |
| 2026-05-07 12:54 | 43.57039 | 22.06016 | 37082 ft | 502 kts | 141° |
| 2026-05-07 12:54 | 43.52735 | 22.11395 | 37088 ft | 502 kts | 141° |
| 2026-05-07 12:55 | 43.47553 | 22.17855 | 37079 ft | 503 kts | 141° |
| 2026-05-07 12:55 | 43.41529 | 22.25348 | 37075 ft | 502 kts | 141° |
| 2026-05-07 12:56 | 43.37217 | 22.30698 | 37081 ft | 502 kts | 141° |
| 2026-05-07 12:56 | 43.32026 | 22.37124 | 37082 ft | 502 kts | 141° |
| 2026-05-07 12:57 | 43.26802 | 22.43577 | 37081 ft | 502 kts | 141° |
| 2026-05-07 12:57 | 43.21635 | 22.49943 | 37076 ft | 503 kts | 141° |
| 2026-05-07 12:58 | 43.16428 | 22.56341 | 37085 ft | 503 kts | 141° |
| 2026-05-07 12:58 | 43.11203 | 22.62749 | 37086 ft | 504 kts | 141° |
| 2026-05-07 12:59 | 43.05966 | 22.69155 | 37083 ft | 505 kts | 141° |
| 2026-05-07 12:59 | 43.00718 | 22.75559 | 37076 ft | 505 kts | 141° |
| 2026-05-07 13:00 | 42.95525 | 22.82029 | 37091 ft | 505 kts | 140° |
| 2026-05-07 13:00 | 42.90350 | 22.88511 | 37077 ft | 505 kts | 141° |
| 2026-05-07 13:01 | 42.85208 | 22.95048 | 37087 ft | 505 kts | 140° |
| 2026-05-07 13:01 | 42.80086 | 23.01498 | 37098 ft | 506 kts | 141° |
| 2026-05-07 13:02 | 42.74906 | 23.08019 | 37098 ft | 507 kts | 140° |
| 2026-05-07 13:02 | 42.69720 | 23.14534 | 37103 ft | 508 kts | 141° |
| 2026-05-07 13:03 | 42.64513 | 23.21053 | 37103 ft | 509 kts | 140° |
| 2026-05-07 13:03 | 42.59297 | 23.27575 | 37101 ft | 510 kts | 141° |
| 2026-05-07 13:04 | 42.54080 | 23.34077 | 37096 ft | 509 kts | 141° |
| 2026-05-07 13:04 | 42.48844 | 23.40590 | 37107 ft | 513 kts | 141° |
| 2026-05-07 13:05 | 42.43563 | 23.47142 | 37111 ft | 515 kts | 141° |
| 2026-05-07 13:05 | 42.38272 | 23.53691 | 37116 ft | 515 kts | 141° |
| 2026-05-07 13:06 | 42.32966 | 23.60243 | 37114 ft | 516 kts | 141° |
| 2026-05-07 13:06 | 42.27697 | 23.66734 | 37112 ft | 516 kts | 141° |
| 2026-05-07 13:07 | 42.22388 | 23.73259 | 37114 ft | 517 kts | 141° |
| 2026-05-07 13:07 | 42.17068 | 23.79783 | 37108 ft | 517 kts | 141° |
| 2026-05-07 13:08 | 42.11733 | 23.86308 | 37106 ft | 518 kts | 141° |
| 2026-05-07 13:08 | 42.06382 | 23.92838 | 37109 ft | 520 kts | 141° |
| 2026-05-07 13:09 | 42.01021 | 23.99364 | 37109 ft | 520 kts | 141° |
| 2026-05-07 13:09 | 41.95644 | 24.05895 | 37113 ft | 521 kts | 141° |
| 2026-05-07 13:10 | 41.90255 | 24.12424 | 37113 ft | 522 kts | 141° |
| 2026-05-07 13:10 | 41.84859 | 24.18946 | 37116 ft | 522 kts | 141° |
| 2026-05-07 13:11 | 41.79457 | 24.25460 | 37127 ft | 522 kts | 141° |
| 2026-05-07 13:11 | 41.74082 | 24.31926 | 37124 ft | 523 kts | 141° |
| 2026-05-07 13:12 | 41.68657 | 24.38438 | 37129 ft | 524 kts | 141° |
| 2026-05-07 13:12 | 41.63224 | 24.44943 | 37125 ft | 523 kts | 141° |
| 2026-05-07 13:13 | 41.57801 | 24.51420 | 37127 ft | 524 kts | 141° |
| 2026-05-07 13:13 | 41.52358 | 24.57908 | 37121 ft | 525 kts | 141° |
| 2026-05-07 13:14 | 41.46905 | 24.64390 | 37116 ft | 525 kts | 141° |
| 2026-05-07 13:14 | 41.41475 | 24.70899 | 37118 ft | 525 kts | 136° |
| 2026-05-07 13:15 | 41.36263 | 24.77738 | 37123 ft | 526 kts | 138° |
| 2026-05-07 13:15 | 41.31054 | 24.84520 | 37118 ft | 526 kts | 137° |
| 2026-05-07 13:16 | 41.25830 | 24.91342 | 37118 ft | 526 kts | 137° |
| 2026-05-07 13:16 | 41.20588 | 24.98138 | 37120 ft | 527 kts | 137° |
| 2026-05-07 13:17 | 41.15350 | 25.04940 | 37113 ft | 527 kts | 137° |
| 2026-05-07 13:17 | 41.10102 | 25.11720 | 37117 ft | 527 kts | 137° |
| 2026-05-07 13:18 | 41.04852 | 25.18498 | 37115 ft | 526 kts | 137° |
| 2026-05-07 13:18 | 40.99606 | 25.25248 | 37118 ft | 526 kts | 137° |
| 2026-05-07 13:19 | 40.94394 | 25.31943 | 37120 ft | 525 kts | 137° |
| 2026-05-07 13:19 | 40.89146 | 25.38665 | 37119 ft | 526 kts | 137° |
| 2026-05-07 13:20 | 40.83897 | 25.45376 | 37119 ft | 525 kts | 137° |
| 2026-05-07 13:20 | 40.78637 | 25.52084 | 37115 ft | 525 kts | 137° |
| 2026-05-07 13:21 | 40.73377 | 25.58776 | 37111 ft | 526 kts | 137° |
| 2026-05-07 13:21 | 40.68102 | 25.65471 | 37113 ft | 526 kts | 137° |
| 2026-05-07 13:22 | 40.64929 | 25.69492 | 37112 ft | 526 kts | 137° |
| 2026-05-07 13:23 | 40.59655 | 25.76162 | 37111 ft | 526 kts | 137° |
| 2026-05-07 13:23 | 40.54379 | 25.82820 | 37113 ft | 525 kts | 137° |
| 2026-05-07 13:24 | 40.49368 | 25.89715 | 37161 ft | 527 kts | 125° |
| 2026-05-07 13:24 | 40.45391 | 25.97849 | 37130 ft | 531 kts | 123° |
| 2026-05-07 13:25 | 40.41433 | 26.06037 | 37132 ft | 531 kts | 123° |
| 2026-05-07 13:25 | 40.37450 | 26.14207 | 37127 ft | 531 kts | 123° |
| 2026-05-07 13:26 | 40.33479 | 26.22366 | 37135 ft | 531 kts | 123° |
| 2026-05-07 13:26 | 40.29490 | 26.30519 | 37125 ft | 531 kts | 123° |
| 2026-05-07 13:27 | 40.25501 | 26.38662 | 37123 ft | 531 kts | 123° |
| 2026-05-07 13:27 | 40.21507 | 26.46786 | 37124 ft | 531 kts | 123° |
| 2026-05-07 13:28 | 40.17504 | 26.54912 | 37125 ft | 531 kts | 123° |
| 2026-05-07 13:28 | 40.13491 | 26.63037 | 37126 ft | 531 kts | 123° |
| 2026-05-07 13:29 | 40.09506 | 26.71085 | 37118 ft | 532 kts | 123° |
| 2026-05-07 13:29 | 40.05475 | 26.79203 | 37114 ft | 532 kts | 123° |
| 2026-05-07 13:30 | 40.01446 | 26.87298 | 37107 ft | 531 kts | 124° |
| 2026-05-07 13:30 | 39.97422 | 26.95359 | 37107 ft | 532 kts | 124° |
| 2026-05-07 13:31 | 39.93373 | 27.03453 | 37108 ft | 533 kts | 124° |
| 2026-05-07 13:31 | 39.89316 | 27.11540 | 37112 ft | 533 kts | 124° |
| 2026-05-07 13:32 | 39.85280 | 27.19565 | 37111 ft | 534 kts | 124° |
| 2026-05-07 13:32 | 39.81204 | 27.27648 | 37112 ft | 534 kts | 124° |
| 2026-05-07 13:33 | 39.77119 | 27.35715 | 37113 ft | 534 kts | 124° |
| 2026-05-07 13:33 | 39.73023 | 27.43780 | 37112 ft | 535 kts | 124° |
| 2026-05-07 13:34 | 39.66872 | 27.55871 | 37110 ft | 535 kts | 124° |
| 2026-05-07 13:35 | 39.62761 | 27.63937 | 37109 ft | 536 kts | 124° |
| 2026-05-07 13:35 | 39.58644 | 27.71989 | 37107 ft | 536 kts | 123° |
| 2026-05-07 13:36 | 39.54517 | 27.80044 | 37105 ft | 537 kts | 124° |
| 2026-05-07 13:36 | 39.50380 | 27.88093 | 37116 ft | 537 kts | 124° |
| 2026-05-07 13:37 | 39.46231 | 27.96146 | 37108 ft | 538 kts | 124° |
| 2026-05-07 13:37 | 39.42066 | 28.04209 | 37117 ft | 538 kts | 124° |
| 2026-05-07 13:38 | 39.37925 | 28.12207 | 37120 ft | 539 kts | 124° |
| 2026-05-07 13:38 | 39.33745 | 28.20256 | 37135 ft | 540 kts | 124° |
| 2026-05-07 13:39 | 39.29553 | 28.28311 | 37142 ft | 541 kts | 124° |
| 2026-05-07 13:39 | 39.25348 | 28.36374 | 37148 ft | 542 kts | 124° |
| 2026-05-07 13:40 | 39.21131 | 28.44438 | 37151 ft | 542 kts | 124° |
| 2026-05-07 13:40 | 39.16904 | 28.52502 | 37150 ft | 543 kts | 124° |
| 2026-05-07 13:41 | 39.12668 | 28.60564 | 37151 ft | 544 kts | 124° |
| 2026-05-07 13:41 | 39.08425 | 28.68616 | 37150 ft | 543 kts | 124° |
| 2026-05-07 13:42 | 39.04163 | 28.76686 | 37154 ft | 545 kts | 124° |
| 2026-05-07 13:42 | 38.99889 | 28.84757 | 37152 ft | 546 kts | 124° |
| 2026-05-07 13:43 | 38.95606 | 28.92828 | 37153 ft | 547 kts | 124° |
| 2026-05-07 13:43 | 38.91314 | 29.00891 | 37153 ft | 547 kts | 124° |
| 2026-05-07 13:44 | 38.87732 | 29.07606 | 37144 ft | 548 kts | 124° |
| 2026-05-07 13:44 | 38.83421 | 29.15672 | 37157 ft | 548 kts | 124° |
| 2026-05-07 13:45 | 38.79098 | 29.23737 | 37175 ft | 549 kts | 124° |
| 2026-05-07 13:45 | 38.74769 | 29.31795 | 37185 ft | 549 kts | 124° |
| 2026-05-07 13:46 | 38.70432 | 29.39846 | 37192 ft | 549 kts | 124° |
| 2026-05-07 13:46 | 38.66073 | 29.47874 | 37193 ft | 548 kts | 127° |
| 2026-05-07 13:47 | 38.61620 | 29.55729 | 37191 ft | 550 kts | 124° |
| 2026-05-07 13:47 | 38.57130 | 29.63662 | 37183 ft | 551 kts | 126° |
| 2026-05-07 13:48 | 38.52606 | 29.71576 | 37169 ft | 551 kts | 125° |
| 2026-05-07 13:48 | 38.48097 | 29.79505 | 37157 ft | 552 kts | 125° |
| 2026-05-07 13:49 | 38.43564 | 29.87404 | 37151 ft | 552 kts | 125° |
| 2026-05-07 13:49 | 38.39038 | 29.95314 | 37158 ft | 552 kts | 125° |
| 2026-05-07 13:50 | 38.34498 | 30.03199 | 37164 ft | 552 kts | 125° |
| 2026-05-07 13:50 | 38.29964 | 30.11074 | 37164 ft | 551 kts | 125° |
| 2026-05-07 13:51 | 38.25420 | 30.18949 | 37168 ft | 552 kts | 125° |
| 2026-05-07 13:51 | 38.20876 | 30.26813 | 37171 ft | 551 kts | 125° |
| 2026-05-07 13:52 | 38.16355 | 30.34603 | 37180 ft | 551 kts | 125° |
| 2026-05-07 13:52 | 38.11797 | 30.42450 | 37180 ft | 551 kts | 125° |
| 2026-05-07 13:53 | 38.07241 | 30.50267 | 37189 ft | 551 kts | 125° |
| 2026-05-07 13:53 | 38.02681 | 30.58078 | 37182 ft | 550 kts | 125° |
| 2026-05-07 13:54 | 37.98127 | 30.65856 | 37180 ft | 549 kts | 125° |
| 2026-05-07 13:54 | 37.93577 | 30.73637 | 37180 ft | 549 kts | 125° |
| 2026-05-07 13:55 | 37.89027 | 30.81403 | 37180 ft | 548 kts | 125° |
| 2026-05-07 13:55 | 37.84477 | 30.89143 | 37183 ft | 548 kts | 125° |
| 2026-05-07 13:56 | 37.79926 | 30.96874 | 37184 ft | 548 kts | 125° |
| 2026-05-07 13:56 | 37.75366 | 31.04598 | 37184 ft | 548 kts | 126° |
| 2026-05-07 13:57 | 37.70806 | 31.12307 | 37185 ft | 548 kts | 126° |
| 2026-05-07 13:57 | 37.66271 | 31.19953 | 37184 ft | 547 kts | 126° |
| 2026-05-07 13:58 | 37.61705 | 31.27635 | 37179 ft | 547 kts | 126° |
| 2026-05-07 13:58 | 37.57138 | 31.35302 | 37179 ft | 547 kts | 126° |
| 2026-05-07 13:59 | 37.52554 | 31.42976 | 37174 ft | 548 kts | 126° |
| 2026-05-07 13:59 | 37.47972 | 31.50632 | 37171 ft | 546 kts | 126° |
| 2026-05-07 14:00 | 37.43398 | 31.58255 | 37170 ft | 545 kts | 126° |
| 2026-05-07 14:00 | 37.38814 | 31.65879 | 37173 ft | 546 kts | 126° |
| 2026-05-07 14:01 | 37.34252 | 31.73445 | 37168 ft | 546 kts | 126° |
| 2026-05-07 14:01 | 37.29651 | 31.81041 | 37165 ft | 547 kts | 126° |
| 2026-05-07 14:02 | 37.25042 | 31.88643 | 37168 ft | 547 kts | 127° |
| 2026-05-07 14:02 | 37.20425 | 31.96235 | 37165 ft | 547 kts | 127° |
| 2026-05-07 14:02 | 37.18115 | 32.00029 | 37305 ft | 547 kts | 127° |
| 2026-05-07 14:03 | 37.15803 | 32.03822 | 37384 ft | 548 kts | 127° |
| 2026-05-07 14:03 | 37.13490 | 32.07612 | 37556 ft | 547 kts | 127° |
| 2026-05-07 14:03 | 37.11177 | 32.11397 | 37713 ft | 547 kts | 127° |
| 2026-05-07 14:03 | 37.08866 | 32.15173 | 37868 ft | 546 kts | 127° |
| 2026-05-07 14:04 | 37.06556 | 32.18946 | 38016 ft | 546 kts | 127° |
| 2026-05-07 14:04 | 37.04249 | 32.22709 | 38171 ft | 545 kts | 127° |
| 2026-05-07 14:04 | 37.01941 | 32.26469 | 38309 ft | 544 kts | 127° |
| 2026-05-07 14:05 | 36.97326 | 32.33974 | 38518 ft | 544 kts | 127° |
| 2026-05-07 14:05 | 36.95021 | 32.37717 | 38659 ft | 543 kts | 127° |
| 2026-05-07 14:05 | 36.92716 | 32.41456 | 38807 ft | 543 kts | 127° |
| 2026-05-07 14:05 | 36.90408 | 32.45194 | 38909 ft | 542 kts | 127° |
| 2026-05-07 14:06 | 36.88103 | 32.48925 | 39003 ft | 542 kts | 127° |
| 2026-05-07 14:06 | 36.83494 | 32.56380 | 39150 ft | 542 kts | 127° |
| 2026-05-07 14:07 | 36.78874 | 32.63836 | 39139 ft | 543 kts | 127° |
| 2026-05-07 14:07 | 36.74264 | 32.71258 | 39138 ft | 540 kts | 127° |
| 2026-05-07 14:08 | 36.69689 | 32.78610 | 39133 ft | 540 kts | 127° |
| 2026-05-07 14:08 | 36.65081 | 32.85995 | 39123 ft | 540 kts | 127° |
| 2026-05-07 14:09 | 36.60472 | 32.93369 | 39130 ft | 540 kts | 127° |
| 2026-05-07 14:09 | 36.55852 | 33.00743 | 39124 ft | 540 kts | 127° |
| 2026-05-07 14:10 | 36.51235 | 33.08097 | 39115 ft | 540 kts | 127° |
| 2026-05-07 14:10 | 36.46601 | 33.15463 | 39113 ft | 541 kts | 127° |
| 2026-05-07 14:11 | 36.41959 | 33.22824 | 39113 ft | 542 kts | 127° |
| 2026-05-07 14:11 | 36.37336 | 33.30138 | 39120 ft | 543 kts | 127° |
| 2026-05-07 14:12 | 36.32662 | 33.37501 | 39121 ft | 543 kts | 128° |
| 2026-05-07 14:12 | 36.27987 | 33.44855 | 39115 ft | 542 kts | 128° |
| 2026-05-07 14:13 | 36.23314 | 33.52188 | 39112 ft | 542 kts | 128° |
| 2026-05-07 14:13 | 36.18633 | 33.59516 | 39117 ft | 542 kts | 128° |
| 2026-05-07 14:14 | 36.13949 | 33.66835 | 39109 ft | 541 kts | 128° |
| 2026-05-07 14:14 | 36.09280 | 33.74115 | 39104 ft | 540 kts | 128° |
| 2026-05-07 14:15 | 36.04616 | 33.81371 | 39099 ft | 539 kts | 128° |
| 2026-05-07 14:15 | 35.99954 | 33.88610 | 39092 ft | 538 kts | 129° |
| 2026-05-07 14:16 | 35.95321 | 33.95787 | 39093 ft | 538 kts | 129° |
| 2026-05-07 14:16 | 35.90876 | 34.03259 | 39131 ft | 536 kts | 116° |
| 2026-05-07 14:17 | 35.87463 | 34.11471 | 39106 ft | 539 kts | 116° |
| 2026-05-07 14:17 | 35.84070 | 34.19660 | 39107 ft | 540 kts | 117° |
| 2026-05-07 14:18 | 35.80630 | 34.27891 | 39104 ft | 540 kts | 117° |
| 2026-05-07 14:18 | 35.77198 | 34.36125 | 39104 ft | 540 kts | 117° |
| 2026-05-07 14:19 | 35.73751 | 34.44344 | 39103 ft | 539 kts | 117° |
| 2026-05-07 14:19 | 35.70314 | 34.52539 | 39098 ft | 539 kts | 117° |
| 2026-05-07 14:20 | 35.66865 | 34.60729 | 39097 ft | 539 kts | 117° |
| 2026-05-07 14:20 | 35.63414 | 34.68912 | 39089 ft | 539 kts | 117° |
| 2026-05-07 14:21 | 35.59981 | 34.77027 | 39088 ft | 539 kts | 117° |
| 2026-05-07 14:21 | 35.56514 | 34.85205 | 39093 ft | 540 kts | 118° |
| 2026-05-07 14:22 | 35.53042 | 34.93375 | 39090 ft | 540 kts | 118° |
| 2026-05-07 14:22 | 35.49561 | 35.01545 | 39092 ft | 539 kts | 118° |
| 2026-05-07 14:23 | 35.46082 | 35.09692 | 39090 ft | 538 kts | 118° |
| 2026-05-07 14:23 | 35.42605 | 35.17813 | 39089 ft | 538 kts | 118° |
| 2026-05-07 14:24 | 35.39117 | 35.25938 | 39087 ft | 538 kts | 118° |
| 2026-05-07 14:24 | 35.35630 | 35.34044 | 39084 ft | 538 kts | 119° |
| 2026-05-07 14:25 | 35.32133 | 35.42154 | 39081 ft | 538 kts | 119° |
| 2026-05-07 14:25 | 35.28634 | 35.50248 | 39080 ft | 538 kts | 119° |
| 2026-05-07 14:26 | 35.25130 | 35.58331 | 39078 ft | 537 kts | 119° |
| 2026-05-07 14:26 | 35.21738 | 35.66397 | 39089 ft | 537 kts | 111° |
| 2026-05-07 14:26 | 35.20653 | 35.70766 | 39108 ft | 539 kts | 100° |
| 2026-05-07 14:27 | 35.20229 | 35.75319 | 39122 ft | 541 kts | 89° |
| 2026-05-07 14:27 | 35.21078 | 35.84456 | 39098 ft | 542 kts | 83° |
| 2026-05-07 14:27 | 35.21258 | 35.89051 | 39132 ft | 542 kts | 95° |
| 2026-05-07 14:28 | 35.20731 | 35.93612 | 39121 ft | 542 kts | 106° |
| 2026-05-07 14:28 | 35.19540 | 35.97976 | 39121 ft | 540 kts | 117° |
| 2026-05-07 14:28 | 35.17736 | 36.01980 | 39118 ft | 537 kts | 128° |
| 2026-05-07 14:29 | 35.12879 | 36.08839 | 39097 ft | 534 kts | 135° |
| 2026-05-07 14:29 | 35.07810 | 36.15432 | 39087 ft | 531 kts | 136° |
| 2026-05-07 14:30 | 35.02767 | 36.22014 | 39083 ft | 529 kts | 136° |
| 2026-05-07 14:30 | 34.97735 | 36.28557 | 39071 ft | 529 kts | 136° |
| 2026-05-07 14:31 | 34.92700 | 36.35092 | 39068 ft | 528 kts | 136° |
| 2026-05-07 14:31 | 34.87671 | 36.41610 | 39066 ft | 527 kts | 136° |
| 2026-05-07 14:32 | 34.82675 | 36.48069 | 39063 ft | 527 kts | 136° |
| 2026-05-07 14:32 | 34.77640 | 36.54570 | 39065 ft | 527 kts | 136° |
| 2026-05-07 14:33 | 34.72609 | 36.61050 | 39065 ft | 527 kts | 137° |
| 2026-05-07 14:33 | 34.68425 | 36.66431 | 39055 ft | 526 kts | 137° |
| 2026-05-07 14:34 | 34.63390 | 36.72894 | 39050 ft | 526 kts | 137° |
| 2026-05-07 14:34 | 34.58360 | 36.79340 | 39052 ft | 525 kts | 137° |
| 2026-05-07 14:35 | 34.53332 | 36.85770 | 39052 ft | 525 kts | 137° |
| 2026-05-07 14:35 | 34.48302 | 36.92190 | 39042 ft | 525 kts | 137° |
| 2026-05-07 14:36 | 34.43267 | 36.98606 | 39041 ft | 525 kts | 137° |
| 2026-05-07 14:36 | 34.38230 | 37.05013 | 39038 ft | 525 kts | 137° |
| 2026-05-07 14:37 | 34.33186 | 37.11415 | 39037 ft | 525 kts | 137° |
| 2026-05-07 14:37 | 34.25653 | 37.20955 | 39023 ft | 525 kts | 137° |
| 2026-05-07 14:38 | 34.20292 | 37.26824 | 39045 ft | 515 kts | 153° |
| 2026-05-07 14:38 | 34.13984 | 37.30834 | 39030 ft | 513 kts | 158° |
| 2026-05-07 14:39 | 34.07566 | 37.34636 | 39031 ft | 514 kts | 158° |
| 2026-05-07 14:39 | 34.01169 | 37.38468 | 39030 ft | 513 kts | 158° |
| 2026-05-07 14:40 | 33.94768 | 37.42268 | 39018 ft | 513 kts | 158° |
| 2026-05-07 14:40 | 33.88367 | 37.46077 | 39012 ft | 513 kts | 158° |
| 2026-05-07 14:41 | 33.82005 | 37.49848 | 39008 ft | 512 kts | 158° |
| 2026-05-07 14:41 | 33.75630 | 37.53625 | 38998 ft | 510 kts | 158° |
| 2026-05-07 14:42 | 33.69251 | 37.57395 | 38990 ft | 511 kts | 158° |
| 2026-05-07 14:42 | 33.62877 | 37.61158 | 38992 ft | 511 kts | 158° |
| 2026-05-07 14:43 | 33.56491 | 37.64921 | 38986 ft | 511 kts | 158° |
| 2026-05-07 14:43 | 33.50093 | 37.68620 | 38982 ft | 509 kts | 159° |
| 2026-05-07 14:44 | 33.43692 | 37.72286 | 38997 ft | 511 kts | 158° |
| 2026-05-07 14:44 | 33.37287 | 37.75955 | 38992 ft | 510 kts | 159° |
| 2026-05-07 14:45 | 33.30874 | 37.79594 | 38988 ft | 510 kts | 159° |
| 2026-05-07 14:45 | 33.24501 | 37.83227 | 38987 ft | 510 kts | 159° |
| 2026-05-07 14:46 | 33.18096 | 37.86856 | 38982 ft | 510 kts | 159° |
| 2026-05-07 14:46 | 33.11683 | 37.90494 | 38983 ft | 510 kts | 159° |
| 2026-05-07 14:47 | 33.05269 | 37.94121 | 38983 ft | 509 kts | 159° |
| 2026-05-07 14:47 | 32.98870 | 37.97737 | 38979 ft | 509 kts | 159° |
| 2026-05-07 14:48 | 32.92511 | 38.01431 | 38989 ft | 508 kts | 158° |
| 2026-05-07 14:48 | 32.86168 | 38.05139 | 38985 ft | 507 kts | 158° |
| 2026-05-07 14:49 | 32.79864 | 38.08908 | 38987 ft | 507 kts | 158° |
| 2026-05-07 14:49 | 32.73547 | 38.12654 | 38982 ft | 506 kts | 158° |
| 2026-05-07 14:50 | 32.67294 | 38.16361 | 38987 ft | 505 kts | 158° |
| 2026-05-07 14:50 | 32.61015 | 38.20082 | 38990 ft | 504 kts | 158° |
| 2026-05-07 14:51 | 32.54736 | 38.23790 | 38984 ft | 503 kts | 158° |
| 2026-05-07 14:51 | 32.48469 | 38.27491 | 38986 ft | 503 kts | 158° |
| 2026-05-07 14:52 | 32.42206 | 38.31180 | 38984 ft | 502 kts | 158° |
| 2026-05-07 14:52 | 32.35986 | 38.34840 | 38993 ft | 502 kts | 158° |
| 2026-05-07 14:53 | 32.29739 | 38.38509 | 38992 ft | 501 kts | 158° |
| 2026-05-07 14:53 | 32.23494 | 38.42172 | 38993 ft | 501 kts | 158° |
| 2026-05-07 14:54 | 32.17256 | 38.45825 | 38997 ft | 500 kts | 159° |
| 2026-05-07 14:54 | 32.11028 | 38.49467 | 38998 ft | 499 kts | 159° |
| 2026-05-07 14:55 | 32.04817 | 38.53093 | 39008 ft | 498 kts | 159° |
| 2026-05-07 14:55 | 31.98608 | 38.56712 | 39000 ft | 497 kts | 159° |
| 2026-05-07 14:56 | 31.92408 | 38.60320 | 39006 ft | 496 kts | 159° |
| 2026-05-07 14:56 | 31.86217 | 38.63921 | 39006 ft | 496 kts | 159° |
| 2026-05-07 14:57 | 31.80035 | 38.67515 | 39013 ft | 495 kts | 159° |
| 2026-05-07 14:57 | 31.73859 | 38.71096 | 39013 ft | 495 kts | 160° |
| 2026-05-07 14:58 | 31.67776 | 38.74889 | 39046 ft | 498 kts | 154° |
| 2026-05-07 14:58 | 31.61881 | 38.79112 | 39020 ft | 500 kts | 155° |
| 2026-05-07 14:59 | 31.55944 | 38.83379 | 39024 ft | 500 kts | 154° |
| 2026-05-07 14:59 | 31.50005 | 38.87638 | 39026 ft | 500 kts | 155° |
| 2026-05-07 15:00 | 31.44066 | 38.91885 | 39018 ft | 500 kts | 155° |
| 2026-05-07 15:00 | 31.38133 | 38.96128 | 39017 ft | 499 kts | 155° |
| 2026-05-07 15:01 | 31.32200 | 39.00359 | 39011 ft | 499 kts | 155° |
| 2026-05-07 15:01 | 31.26272 | 39.04585 | 39015 ft | 498 kts | 155° |
| 2026-05-07 15:02 | 31.20352 | 39.08796 | 39016 ft | 498 kts | 155° |
| 2026-05-07 15:02 | 31.14435 | 39.12999 | 39018 ft | 498 kts | 155° |
| 2026-05-07 15:03 | 31.08508 | 39.17204 | 39021 ft | 498 kts | 155° |
| 2026-05-07 15:03 | 31.02622 | 39.21372 | 39024 ft | 498 kts | 155° |
| 2026-05-07 15:04 | 30.96695 | 39.25566 | 39027 ft | 498 kts | 155° |
| 2026-05-07 15:04 | 30.90778 | 39.29745 | 39031 ft | 497 kts | 155° |
| 2026-05-07 15:05 | 30.84864 | 39.33916 | 39032 ft | 497 kts | 155° |
| 2026-05-07 15:05 | 30.78952 | 39.38080 | 39032 ft | 496 kts | 155° |
| 2026-05-07 15:06 | 30.73043 | 39.42235 | 39031 ft | 496 kts | 156° |
| 2026-05-07 15:06 | 30.67133 | 39.46385 | 39035 ft | 497 kts | 156° |
| 2026-05-07 15:07 | 30.61217 | 39.50534 | 39035 ft | 496 kts | 156° |
| 2026-05-07 15:07 | 30.55308 | 39.54671 | 39036 ft | 495 kts | 156° |
| 2026-05-07 15:08 | 30.49408 | 39.58796 | 39044 ft | 495 kts | 156° |
| 2026-05-07 15:08 | 30.43544 | 39.63003 | 39051 ft | 500 kts | 149° |
| 2026-05-07 15:09 | 30.38526 | 39.68770 | 39066 ft | 520 kts | 133° |
| 2026-05-07 15:09 | 30.34188 | 39.75499 | 39049 ft | 521 kts | 134° |
| 2026-05-07 15:10 | 30.29885 | 39.82203 | 39052 ft | 522 kts | 134° |
| 2026-05-07 15:10 | 30.25543 | 39.88926 | 39046 ft | 522 kts | 134° |
| 2026-05-07 15:11 | 30.21206 | 39.95649 | 39045 ft | 521 kts | 134° |
| 2026-05-07 15:11 | 30.16871 | 40.02346 | 39033 ft | 520 kts | 135° |
| 2026-05-07 15:12 | 30.12537 | 40.09037 | 39036 ft | 519 kts | 135° |
| 2026-05-07 15:12 | 30.08200 | 40.15717 | 39020 ft | 520 kts | 135° |
| 2026-05-07 15:13 | 30.03858 | 40.22397 | 39018 ft | 520 kts | 135° |
| 2026-05-07 15:13 | 29.99511 | 40.29074 | 39022 ft | 520 kts | 135° |
| 2026-05-07 15:14 | 29.95167 | 40.35738 | 39024 ft | 520 kts | 135° |
| 2026-05-07 15:14 | 29.90811 | 40.42411 | 39022 ft | 520 kts | 136° |
| 2026-05-07 15:15 | 29.86451 | 40.49077 | 39017 ft | 521 kts | 136° |
| 2026-05-07 15:15 | 29.82120 | 40.55690 | 39019 ft | 521 kts | 136° |
| 2026-05-07 15:16 | 29.77750 | 40.62351 | 39017 ft | 521 kts | 136° |
| 2026-05-07 15:16 | 29.73777 | 40.69429 | 39028 ft | 529 kts | 131° |
| 2026-05-07 15:17 | 29.69882 | 40.76613 | 39018 ft | 529 kts | 130° |
| 2026-05-07 15:17 | 29.66012 | 40.83824 | 39017 ft | 529 kts | 131° |
| 2026-05-07 15:18 | 29.62133 | 40.90987 | 39022 ft | 528 kts | 131° |
| 2026-05-07 15:18 | 29.58261 | 40.98154 | 39014 ft | 527 kts | 131° |
| 2026-05-07 15:19 | 29.54386 | 41.05296 | 39020 ft | 526 kts | 131° |
| 2026-05-07 15:19 | 29.50512 | 41.12433 | 39019 ft | 526 kts | 131° |
| 2026-05-07 15:20 | 29.46637 | 41.19558 | 39013 ft | 526 kts | 131° |
| 2026-05-07 15:20 | 29.42759 | 41.26674 | 39009 ft | 526 kts | 131° |
| 2026-05-07 15:21 | 29.38878 | 41.33785 | 39003 ft | 525 kts | 132° |
| 2026-05-07 15:21 | 29.35025 | 41.40831 | 39002 ft | 525 kts | 132° |
| 2026-05-07 15:22 | 29.31147 | 41.47919 | 38999 ft | 525 kts | 132° |
| 2026-05-07 15:22 | 29.27267 | 41.54994 | 39005 ft | 524 kts | 132° |
| 2026-05-07 15:23 | 29.23387 | 41.62059 | 39000 ft | 524 kts | 132° |
| 2026-05-07 15:23 | 29.20129 | 41.67980 | 39000 ft | 525 kts | 133° |
| 2026-05-07 15:24 | 29.16236 | 41.75046 | 39011 ft | 525 kts | 133° |
| 2026-05-07 15:24 | 29.12365 | 41.82059 | 38999 ft | 524 kts | 133° |
| 2026-05-07 15:25 | 29.08471 | 41.89102 | 38997 ft | 524 kts | 133° |
| 2026-05-07 15:25 | 29.04573 | 41.96141 | 38991 ft | 524 kts | 133° |
| 2026-05-07 15:26 | 29.00670 | 42.03170 | 38994 ft | 524 kts | 133° |
| 2026-05-07 15:26 | 28.96762 | 42.10199 | 38992 ft | 524 kts | 133° |
| 2026-05-07 15:27 | 28.92851 | 42.17222 | 38987 ft | 524 kts | 133° |
| 2026-05-07 15:27 | 28.88930 | 42.24249 | 38987 ft | 524 kts | 133° |
| 2026-05-07 15:28 | 28.85010 | 42.31263 | 38993 ft | 524 kts | 133° |
| 2026-05-07 15:28 | 28.81085 | 42.38276 | 38987 ft | 524 kts | 133° |
| 2026-05-07 15:29 | 28.77155 | 42.45284 | 38982 ft | 525 kts | 133° |
| 2026-05-07 15:29 | 28.73212 | 42.52305 | 38981 ft | 526 kts | 133° |
| 2026-05-07 15:30 | 28.69262 | 42.59325 | 38981 ft | 526 kts | 133° |
| 2026-05-07 15:30 | 28.65330 | 42.66293 | 38980 ft | 525 kts | 135° |
| 2026-05-07 15:31 | 28.63128 | 42.69516 | 38998 ft | 510 kts | 144° |
| 2026-05-07 15:31 | 28.60695 | 42.72517 | 38987 ft | 510 kts | 144° |
| 2026-05-07 15:31 | 28.55898 | 42.78407 | 38979 ft | 511 kts | 144° |
| 2026-05-07 15:32 | 28.51062 | 42.84343 | 38976 ft | 512 kts | 144° |
| 2026-05-07 15:32 | 28.46221 | 42.90273 | 38964 ft | 512 kts | 144° |
| 2026-05-07 15:33 | 28.41372 | 42.96203 | 38965 ft | 512 kts | 144° |
| 2026-05-07 15:33 | 28.36519 | 43.02132 | 38960 ft | 512 kts | 144° |
| 2026-05-07 15:34 | 28.31669 | 43.08048 | 38954 ft | 511 kts | 144° |
| 2026-05-07 15:34 | 28.26824 | 43.13950 | 38946 ft | 510 kts | 144° |
| 2026-05-07 15:35 | 28.21982 | 43.19838 | 38944 ft | 510 kts | 145° |
| 2026-05-07 15:35 | 28.17145 | 43.25714 | 38938 ft | 509 kts | 145° |
| 2026-05-07 15:36 | 28.12311 | 43.31575 | 38937 ft | 509 kts | 145° |
| 2026-05-07 15:36 | 28.07482 | 43.37424 | 38937 ft | 508 kts | 145° |
| 2026-05-07 15:37 | 28.02648 | 43.43269 | 38936 ft | 509 kts | 145° |
| 2026-05-07 15:37 | 27.97810 | 43.49113 | 38931 ft | 509 kts | 146° |
| 2026-05-07 15:38 | 27.92968 | 43.54952 | 38930 ft | 508 kts | 146° |
| 2026-05-07 15:38 | 27.88129 | 43.60779 | 38949 ft | 508 kts | 146° |
| 2026-05-07 15:39 | 27.83238 | 43.66523 | 38947 ft | 501 kts | 149° |
| 2026-05-07 15:39 | 27.78205 | 43.71997 | 38932 ft | 503 kts | 148° |
| 2026-05-07 15:40 | 27.73201 | 43.77450 | 38936 ft | 502 kts | 148° |
| 2026-05-07 15:40 | 27.68167 | 43.82915 | 38930 ft | 502 kts | 148° |
| 2026-05-07 15:41 | 27.63135 | 43.88379 | 38930 ft | 502 kts | 148° |
| 2026-05-07 15:41 | 27.58103 | 43.93834 | 38935 ft | 501 kts | 148° |
| 2026-05-07 15:42 | 27.53079 | 43.99268 | 38936 ft | 501 kts | 148° |
| 2026-05-07 15:42 | 27.48048 | 44.04707 | 38935 ft | 501 kts | 148° |
| 2026-05-07 15:43 | 27.43008 | 44.10148 | 38934 ft | 502 kts | 148° |
| 2026-05-07 15:43 | 27.37965 | 44.15586 | 38938 ft | 502 kts | 148° |
| 2026-05-07 15:44 | 27.32916 | 44.21020 | 38936 ft | 502 kts | 148° |
| 2026-05-07 15:44 | 27.27900 | 44.26414 | 38933 ft | 503 kts | 148° |
| 2026-05-07 15:45 | 27.22838 | 44.31847 | 38938 ft | 503 kts | 148° |
| 2026-05-07 15:45 | 27.17783 | 44.37270 | 38937 ft | 502 kts | 148° |
| 2026-05-07 15:46 | 27.10198 | 44.45406 | 38933 ft | 503 kts | 147° |
| 2026-05-07 15:47 | 27.05134 | 44.50828 | 38930 ft | 503 kts | 148° |
| 2026-05-07 15:47 | 27.00062 | 44.56254 | 38936 ft | 504 kts | 147° |
| 2026-05-07 15:48 | 26.94982 | 44.61674 | 38937 ft | 504 kts | 147° |
| 2026-05-07 15:48 | 26.89896 | 44.67090 | 38943 ft | 505 kts | 147° |
| 2026-05-07 15:49 | 26.84805 | 44.72509 | 38942 ft | 505 kts | 147° |
| 2026-05-07 15:49 | 26.79705 | 44.77926 | 38958 ft | 506 kts | 147° |
| 2026-05-07 15:50 | 26.74594 | 44.83349 | 38960 ft | 506 kts | 147° |
| 2026-05-07 15:50 | 26.69480 | 44.88752 | 38963 ft | 506 kts | 147° |
| 2026-05-07 15:51 | 26.64397 | 44.94124 | 38963 ft | 506 kts | 147° |
| 2026-05-07 15:51 | 26.59279 | 44.99523 | 38973 ft | 506 kts | 147° |
| 2026-05-07 15:52 | 26.54157 | 45.04922 | 38977 ft | 507 kts | 147° |
| 2026-05-07 15:52 | 26.49026 | 45.10325 | 38980 ft | 507 kts | 147° |
| 2026-05-07 15:53 | 26.43887 | 45.15728 | 38985 ft | 508 kts | 147° |
| 2026-05-07 15:53 | 26.38734 | 45.21140 | 38985 ft | 509 kts | 147° |
| 2026-05-07 15:54 | 26.33579 | 45.26548 | 38987 ft | 507 kts | 147° |
| 2026-05-07 15:54 | 26.28444 | 45.31929 | 38981 ft | 506 kts | 147° |
| 2026-05-07 15:55 | 26.23323 | 45.37316 | 38975 ft | 506 kts | 147° |
| 2026-05-07 15:55 | 26.18223 | 45.42662 | 38975 ft | 507 kts | 147° |
| 2026-05-07 15:56 | 26.13093 | 45.48043 | 38970 ft | 506 kts | 147° |
| 2026-05-07 15:56 | 26.07955 | 45.53420 | 38965 ft | 507 kts | 147° |
| 2026-05-07 15:57 | 26.02818 | 45.58792 | 38967 ft | 507 kts | 147° |
| 2026-05-07 15:57 | 25.97803 | 45.64325 | 38986 ft | 514 kts | 141° |
| 2026-05-07 15:58 | 25.93025 | 45.70237 | 38969 ft | 518 kts | 139° |
| 2026-05-07 15:58 | 25.88544 | 45.76571 | 38966 ft | 521 kts | 138° |
| 2026-05-07 15:59 | 25.83888 | 45.82702 | 38956 ft | 519 kts | 139° |
| 2026-05-07 15:59 | 25.79312 | 45.88934 | 38954 ft | 521 kts | 138° |
| 2026-05-07 16:00 | 25.74697 | 45.95112 | 38943 ft | 519 kts | 139° |
| 2026-05-07 16:00 | 25.70129 | 46.01253 | 38935 ft | 520 kts | 138° |
| 2026-05-07 16:01 | 25.65487 | 46.07480 | 38926 ft | 521 kts | 139° |
| 2026-05-07 16:01 | 25.60870 | 46.13659 | 38950 ft | 521 kts | 138° |
| 2026-05-07 16:02 | 25.56248 | 46.19843 | 38946 ft | 527 kts | 138° |
| 2026-05-07 16:02 | 25.51571 | 46.26097 | 38939 ft | 523 kts | 138° |
| 2026-05-07 16:03 | 25.46945 | 46.32262 | 38931 ft | 521 kts | 138° |
| 2026-05-07 16:03 | 25.42296 | 46.38454 | 38933 ft | 524 kts | 138° |
| 2026-05-07 16:04 | 25.37632 | 46.44664 | 38933 ft | 525 kts | 138° |
| 2026-05-07 16:04 | 25.32960 | 46.50868 | 38929 ft | 525 kts | 138° |
| 2026-05-07 16:05 | 25.28291 | 46.57065 | 38928 ft | 525 kts | 138° |
| 2026-05-07 16:05 | 25.23613 | 46.63263 | 38939 ft | 525 kts | 138° |
| 2026-05-07 16:06 | 25.18929 | 46.69462 | 38945 ft | 526 kts | 138° |
| 2026-05-07 16:06 | 25.14235 | 46.75666 | 38955 ft | 527 kts | 137° |
| 2026-05-07 16:07 | 25.09535 | 46.81870 | 38954 ft | 527 kts | 137° |
| 2026-05-07 16:07 | 25.04830 | 46.88072 | 38949 ft | 527 kts | 137° |
| 2026-05-07 16:08 | 25.00117 | 46.94277 | 38944 ft | 528 kts | 137° |
| 2026-05-07 16:08 | 24.95434 | 47.00434 | 38939 ft | 528 kts | 137° |
| 2026-05-07 16:09 | 24.90702 | 47.06646 | 38931 ft | 529 kts | 137° |
| 2026-05-07 16:09 | 24.85972 | 47.12850 | 38924 ft | 528 kts | 137° |
| 2026-05-07 16:10 | 24.82038 | 47.18001 | 38919 ft | 528 kts | 137° |
| 2026-05-07 16:10 | 24.77313 | 47.24183 | 38924 ft | 527 kts | 137° |
| 2026-05-07 16:11 | 24.72589 | 47.30354 | 38913 ft | 527 kts | 137° |
| 2026-05-07 16:11 | 24.67864 | 47.36519 | 38901 ft | 527 kts | 137° |
| 2026-05-07 16:12 | 24.63124 | 47.42696 | 38894 ft | 528 kts | 137° |
| 2026-05-07 16:12 | 24.58390 | 47.48856 | 38893 ft | 527 kts | 137° |
| 2026-05-07 16:13 | 24.53648 | 47.55020 | 38894 ft | 527 kts | 137° |
| 2026-05-07 16:13 | 24.48939 | 47.61133 | 38886 ft | 527 kts | 136° |
| 2026-05-07 16:14 | 24.44195 | 47.67283 | 38878 ft | 527 kts | 136° |
| 2026-05-07 16:14 | 24.39448 | 47.73429 | 38871 ft | 528 kts | 136° |
| 2026-05-07 16:15 | 24.34697 | 47.79573 | 38875 ft | 528 kts | 136° |
| 2026-05-07 16:15 | 24.29940 | 47.85716 | 38870 ft | 528 kts | 136° |
| 2026-05-07 16:16 | 24.25186 | 47.91849 | 38872 ft | 528 kts | 136° |
| 2026-05-07 16:16 | 24.20428 | 47.97978 | 38866 ft | 527 kts | 136° |
| 2026-05-07 16:17 | 24.15696 | 48.04066 | 38861 ft | 528 kts | 136° |
| 2026-05-07 16:17 | 24.10935 | 48.10184 | 38861 ft | 527 kts | 136° |
| 2026-05-07 16:18 | 24.06175 | 48.16293 | 38850 ft | 527 kts | 136° |
| 2026-05-07 16:18 | 24.01410 | 48.22400 | 38862 ft | 528 kts | 136° |
| 2026-05-07 16:19 | 23.96643 | 48.28503 | 38854 ft | 527 kts | 136° |
| 2026-05-07 16:19 | 23.91881 | 48.34592 | 38843 ft | 527 kts | 136° |
| 2026-05-07 16:20 | 23.87112 | 48.40681 | 38835 ft | 527 kts | 136° |
| 2026-05-07 16:20 | 23.82350 | 48.46756 | 38833 ft | 526 kts | 136° |
| 2026-05-07 16:21 | 23.77609 | 48.52794 | 38828 ft | 526 kts | 135° |
| 2026-05-07 16:21 | 23.72847 | 48.58853 | 38824 ft | 526 kts | 135° |
| 2026-05-07 16:22 | 23.68083 | 48.64907 | 38820 ft | 526 kts | 135° |
| 2026-05-07 16:22 | 23.63316 | 48.70957 | 38815 ft | 526 kts | 135° |
| 2026-05-07 16:23 | 23.58544 | 48.77006 | 38815 ft | 526 kts | 135° |
| 2026-05-07 16:23 | 23.53765 | 48.83057 | 38813 ft | 526 kts | 135° |
| 2026-05-07 16:24 | 23.48983 | 48.89104 | 38811 ft | 527 kts | 135° |
| 2026-05-07 16:24 | 23.44228 | 48.95109 | 38804 ft | 527 kts | 135° |
| 2026-05-07 16:25 | 23.39446 | 49.01181 | 38804 ft | 528 kts | 131° |
| 2026-05-07 16:25 | 23.37436 | 49.04545 | 38829 ft | 535 kts | 120° |
| 2026-05-07 16:25 | 23.35953 | 49.08286 | 38830 ft | 542 kts | 110° |
| 2026-05-07 16:25 | 23.35067 | 49.12290 | 38840 ft | 547 kts | 99° |
| 2026-05-07 16:26 | 23.34758 | 49.16429 | 38828 ft | 550 kts | 95° |
| 2026-05-07 16:26 | 23.34376 | 49.24747 | 38814 ft | 550 kts | 95° |
| 2026-05-07 16:27 | 23.34006 | 49.33061 | 38814 ft | 550 kts | 95° |
| 2026-05-07 16:27 | 23.33616 | 49.41366 | 38812 ft | 550 kts | 95° |
| 2026-05-07 16:28 | 23.33235 | 49.49674 | 38814 ft | 549 kts | 95° |
| 2026-05-07 16:28 | 23.32840 | 49.57969 | 38812 ft | 549 kts | 95° |
| 2026-05-07 16:29 | 23.32448 | 49.66261 | 38813 ft | 549 kts | 95° |
| 2026-05-07 16:29 | 23.32047 | 49.74561 | 38815 ft | 549 kts | 95° |
| 2026-05-07 16:30 | 23.31644 | 49.82864 | 38813 ft | 550 kts | 95° |
| 2026-05-07 16:30 | 23.31237 | 49.91125 | 38813 ft | 550 kts | 95° |
| 2026-05-07 16:31 | 23.30823 | 49.99439 | 38807 ft | 549 kts | 95° |
| 2026-05-07 16:31 | 23.30408 | 50.07712 | 38802 ft | 547 kts | 95° |
| 2026-05-07 16:32 | 23.29988 | 50.15975 | 38799 ft | 547 kts | 95° |
| 2026-05-07 16:32 | 23.29564 | 50.24237 | 38795 ft | 547 kts | 95° |
| 2026-05-07 16:33 | 23.29135 | 50.32497 | 38796 ft | 547 kts | 95° |
| 2026-05-07 16:33 | 23.28702 | 50.40768 | 38794 ft | 547 kts | 95° |
| 2026-05-07 16:34 | 23.28265 | 50.49036 | 38794 ft | 547 kts | 95° |
| 2026-05-07 16:34 | 23.27823 | 50.57304 | 38797 ft | 547 kts | 95° |
| 2026-05-07 16:35 | 23.27380 | 50.65516 | 38790 ft | 547 kts | 95° |
| 2026-05-07 16:35 | 23.26930 | 50.73773 | 38793 ft | 547 kts | 95° |
| 2026-05-07 16:36 | 23.26476 | 50.82028 | 38794 ft | 546 kts | 95° |
| 2026-05-07 16:36 | 23.26018 | 50.90271 | 38788 ft | 546 kts | 95° |
| 2026-05-07 16:37 | 23.25556 | 50.98516 | 38787 ft | 546 kts | 95° |
| 2026-05-07 16:37 | 23.25153 | 51.06759 | 38797 ft | 546 kts | 88° |
| 2026-05-07 16:37 | 23.25590 | 51.10869 | 38830 ft | 548 kts | 77° |
| 2026-05-07 16:38 | 23.26731 | 51.14823 | 38836 ft | 550 kts | 65° |
| 2026-05-07 16:38 | 23.28540 | 51.18488 | 38841 ft | 549 kts | 53° |
| 2026-05-07 16:38 | 23.30944 | 51.21708 | 38841 ft | 548 kts | 42° |
| 2026-05-07 16:38 | 23.33843 | 51.24364 | 38841 ft | 545 kts | 30° |
| 2026-05-07 16:39 | 23.37139 | 51.26367 | 38839 ft | 540 kts | 19° |
| 2026-05-07 16:39 | 23.40684 | 51.27635 | 38845 ft | 534 kts | 7° |
| 2026-05-07 16:39 | 23.44346 | 51.28132 | 38847 ft | 527 kts | 355° |
| 2026-05-07 16:39 | 23.47973 | 51.27846 | 38845 ft | 520 kts | 344° |
| 2026-05-07 16:40 | 23.51440 | 51.26812 | 38848 ft | 513 kts | 335° |
| 2026-05-07 16:40 | 23.57912 | 51.23851 | 38804 ft | 497 kts | 332° |
| 2026-05-07 16:40 | 23.61090 | 51.22432 | 38548 ft | 490 kts | 334° |
| 2026-05-07 16:41 | 23.64296 | 51.21178 | 37965 ft | 490 kts | 338° |
| 2026-05-07 16:41 | 23.67573 | 51.20144 | 37420 ft | 490 kts | 342° |
| 2026-05-07 16:41 | 23.70917 | 51.19379 | 36849 ft | 491 kts | 347° |
| 2026-05-07 16:41 | 23.74320 | 51.18969 | 36248 ft | 495 kts | 355° |
| 2026-05-07 16:42 | 23.77782 | 51.19100 | 35618 ft | 500 kts | 1° |
| 2026-05-07 16:42 | 23.81252 | 51.19547 | 34944 ft | 504 kts | 4° |
| 2026-05-07 16:42 | 23.84734 | 51.20082 | 34263 ft | 507 kts | 3° |
| 2026-05-07 16:42 | 23.88248 | 51.20438 | 33527 ft | 506 kts | 359° |
| 2026-05-07 16:43 | 23.91761 | 51.20565 | 32835 ft | 504 kts | 358° |
| 2026-05-07 16:43 | 23.95264 | 51.20735 | 32155 ft | 504 kts | 0° |
| 2026-05-07 16:43 | 23.98754 | 51.21054 | 31484 ft | 503 kts | 1° |
| 2026-05-07 16:43 | 24.02191 | 51.21370 | 30825 ft | 501 kts | 0° |
| 2026-05-07 16:44 | 24.05660 | 51.21601 | 30165 ft | 499 kts | 360° |
| 2026-05-07 16:44 | 24.09127 | 51.21816 | 29467 ft | 498 kts | 0° |
| 2026-05-07 16:44 | 24.12569 | 51.22079 | 28806 ft | 494 kts | 1° |
| 2026-05-07 16:44 | 24.15991 | 51.22356 | 28149 ft | 490 kts | 1° |
| 2026-05-07 16:45 | 24.19386 | 51.22607 | 27522 ft | 486 kts | 1° |
| 2026-05-07 16:45 | 24.22752 | 51.22842 | 26889 ft | 482 kts | 1° |
| 2026-05-07 16:45 | 24.26085 | 51.23087 | 26257 ft | 479 kts | 1° |
| 2026-05-07 16:45 | 24.29388 | 51.23453 | 25645 ft | 476 kts | 9° |
| 2026-05-07 16:46 | 24.32556 | 51.24469 | 25035 ft | 475 kts | 21° |
| 2026-05-07 16:46 | 24.35476 | 51.26135 | 24431 ft | 473 kts | 33° |
| 2026-05-07 16:46 | 24.38034 | 51.28372 | 23825 ft | 470 kts | 43° |
| 2026-05-07 16:46 | 24.40413 | 51.30812 | 23174 ft | 466 kts | 43° |
| 2026-05-07 16:47 | 24.42760 | 51.33238 | 22561 ft | 460 kts | 43° |
| 2026-05-07 16:47 | 24.45071 | 51.35636 | 21977 ft | 454 kts | 44° |
| 2026-05-07 16:47 | 24.47356 | 51.37999 | 21398 ft | 448 kts | 44° |
| 2026-05-07 16:47 | 24.49615 | 51.40329 | 20829 ft | 442 kts | 44° |
| 2026-05-07 16:48 | 24.51848 | 51.42623 | 20265 ft | 437 kts | 42° |
| 2026-05-07 16:48 | 24.54330 | 51.44503 | 19728 ft | 432 kts | 28° |
| 2026-05-07 16:48 | 24.56969 | 51.45953 | 19183 ft | 427 kts | 27° |
| 2026-05-07 16:48 | 24.59627 | 51.47373 | 18642 ft | 422 kts | 27° |
| 2026-05-07 16:49 | 24.62257 | 51.48775 | 18099 ft | 418 kts | 27° |
| 2026-05-07 16:49 | 24.64851 | 51.50180 | 17547 ft | 412 kts | 28° |
| 2026-05-07 16:49 | 24.67407 | 51.51569 | 17018 ft | 406 kts | 27° |
| 2026-05-07 16:49 | 24.69956 | 51.52847 | 16318 ft | 403 kts | 24° |
| 2026-05-07 16:50 | 24.72533 | 51.54094 | 15408 ft | 407 kts | 25° |
| 2026-05-07 16:50 | 24.75117 | 51.55396 | 14552 ft | 410 kts | 25° |
| 2026-05-07 16:50 | 24.77703 | 51.56668 | 14017 ft | 403 kts | 24° |
| 2026-05-07 16:50 | 24.80239 | 51.57891 | 13586 ft | 393 kts | 24° |
| 2026-05-07 16:51 | 24.82706 | 51.59086 | 13134 ft | 382 kts | 23° |
| 2026-05-07 16:51 | 24.85209 | 51.59844 | 12835 ft | 369 kts | 6° |
| 2026-05-07 16:51 | 24.87678 | 51.59819 | 12843 ft | 354 kts | 356° |
| 2026-05-07 16:51 | 24.90132 | 51.59604 | 12829 ft | 354 kts | 356° |
| 2026-05-07 16:52 | 24.92589 | 51.59367 | 12827 ft | 355 kts | 356° |
| 2026-05-07 16:52 | 24.95043 | 51.59121 | 12474 ft | 352 kts | 356° |
| 2026-05-07 16:52 | 24.97505 | 51.58878 | 11769 ft | 354 kts | 354° |
| 2026-05-07 16:52 | 24.99834 | 51.58165 | 11446 ft | 342 kts | 340° |
| 2026-05-07 16:53 | 25.02082 | 51.57214 | 10922 ft | 340 kts | 340° |
| 2026-05-07 16:53 | 25.04252 | 51.56251 | 10604 ft | 330 kts | 339° |
| 2026-05-07 16:53 | 25.06300 | 51.55330 | 10223 ft | 304 kts | 339° |
| 2026-05-07 16:53 | 25.08204 | 51.54490 | 9589 ft | 290 kts | 340° |
| 2026-05-07 16:54 | 25.10072 | 51.53676 | 8876 ft | 281 kts | 340° |
| 2026-05-07 16:54 | 25.11867 | 51.52886 | 8740 ft | 285 kts | 340° |
| 2026-05-07 16:54 | 25.13748 | 51.52058 | 8471 ft | 291 kts | 340° |
| 2026-05-07 16:54 | 25.15607 | 51.51235 | 8185 ft | 285 kts | 340° |
| 2026-05-07 16:55 | 25.17414 | 51.50438 | 7893 ft | 282 kts | 340° |
| 2026-05-07 16:55 | 25.19233 | 51.49636 | 7605 ft | 280 kts | 340° |
| 2026-05-07 16:55 | 25.21034 | 51.48841 | 7314 ft | 278 kts | 340° |
| 2026-05-07 16:55 | 25.22828 | 51.48049 | 7036 ft | 277 kts | 340° |
| 2026-05-07 16:56 | 25.24572 | 51.47278 | 6983 ft | 265 kts | 340° |
| 2026-05-07 16:56 | 25.26348 | 51.46496 | 7010 ft | 281 kts | 340° |
| 2026-05-07 16:56 | 25.29921 | 51.44914 | 6727 ft | 274 kts | 340° |
| 2026-05-07 16:57 | 25.31697 | 51.44130 | 6310 ft | 274 kts | 340° |
| 2026-05-07 16:57 | 25.33453 | 51.43353 | 6001 ft | 268 kts | 340° |
| 2026-05-07 16:57 | 25.35166 | 51.42595 | 5997 ft | 266 kts | 340° |
| 2026-05-07 16:57 | 25.36899 | 51.41830 | 6008 ft | 269 kts | 340° |
| 2026-05-07 16:58 | 25.38056 | 51.41317 | 6007 ft | 270 kts | 340° |
| 2026-05-07 16:58 | 25.40390 | 51.40283 | 6010 ft | 271 kts | 340° |
| 2026-05-07 16:58 | 25.42155 | 51.39653 | 5913 ft | 260 kts | 359° |
| 2026-05-07 16:58 | 25.43314 | 51.39727 | 5908 ft | 246 kts | 11° |
| 2026-05-07 16:59 | 25.44846 | 51.40391 | 5737 ft | 229 kts | 35° |
| 2026-05-07 16:59 | 25.45945 | 51.41537 | 5716 ft | 209 kts | 54° |
| 2026-05-07 16:59 | 25.46567 | 51.42954 | 5427 ft | 205 kts | 73° |
| 2026-05-07 16:59 | 25.46691 | 51.45026 | 5011 ft | 205 kts | 91° |
| 2026-05-07 17:00 | 25.46654 | 51.46093 | 4800 ft | 206 kts | 90° |
| 2026-05-07 17:00 | 25.46603 | 51.47677 | 4491 ft | 206 kts | 90° |
| 2026-05-07 17:00 | 25.46554 | 51.49263 | 4088 ft | 208 kts | 90° |
| 2026-05-07 17:00 | 25.46504 | 51.50855 | 3605 ft | 207 kts | 90° |
| 2026-05-07 17:01 | 25.46382 | 51.52412 | 3110 ft | 205 kts | 102° |
| 2026-05-07 17:01 | 25.45569 | 51.53688 | 2528 ft | 207 kts | 144° |
| 2026-05-07 17:01 | 25.44262 | 51.54375 | 2071 ft | 206 kts | 156° |
| 2026-05-07 17:01 | 25.42988 | 51.54972 | 2011 ft | 198 kts | 158° |
| 2026-05-07 17:02 | 25.41675 | 51.55544 | 2007 ft | 205 kts | 160° |
| 2026-05-07 17:02 | 25.40363 | 51.56120 | 2016 ft | 200 kts | 159° |
| 2026-05-07 17:02 | 25.39121 | 51.56671 | 1905 ft | 183 kts | 159° |
| 2026-05-07 17:02 | 25.37963 | 51.57185 | 1687 ft | 176 kts | 160° |
| 2026-05-07 17:03 | 25.36833 | 51.57685 | 1463 ft | 174 kts | 160° |
| 2026-05-07 17:03 | 25.35710 | 51.58186 | 1238 ft | 173 kts | 159° |
| 2026-05-07 17:03 | 25.34599 | 51.58683 | 1022 ft | 172 kts | 160° |
| 2026-05-07 17:03 | 25.33487 | 51.59174 | 812 ft | 171 kts | 159° |
| 2026-05-07 17:04 | 25.32384 | 51.59660 | 625 ft | 171 kts | 158° |
| 2026-05-07 17:04 | 25.31283 | 51.60145 | 403 ft | 170 kts | 156° |
| 2026-05-07 17:04 | 25.30204 | 51.60627 | 213 ft | 167 kts | 153° |
| 2026-05-07 17:04 | 25.29140 | 51.61104 | 31 ft | 158 kts | 152° |
| 2026-05-07 17:05 | 25.28256 | 51.61501 | 28 ft | 115 kts | 158° |
| 2026-05-07 17:05 | 25.27704 | 51.61626 | 27 ft | 54 kts | 189° |
| 2026-05-07 17:05 | 25.27423 | 51.61661 | 28 ft | 31 kts | 157° |
| 2026-05-07 17:05 | 25.27224 | 51.61754 | 27 ft | 31 kts | 157° |
| 2026-05-07 17:06 | 25.27087 | 51.61733 | 27 ft | 17 kts | 245° |
| 2026-05-07 17:06 | 25.27049 | 51.61614 | 28 ft | 16 kts | 258° |
| 2026-05-07 17:06 | 25.27080 | 51.61515 | 28 ft | 11 kts | 306° |
| 2026-05-07 17:06 | 25.27104 | 51.61477 | 28 ft | 0 kts | 304° |